Time,TemperatureF,DewpointF,PressureIn,WindDirection,WindDirectionDegrees,WindSpeedMPH,WindSpeedGustMPH,Humidity,HourlyPrecipIn,Conditions,Clouds,dailyrainin,SoftwareType,DateUTC
2013-05-28 00:03:00,48.0,43.0,30.16,SSE,156,0.0,1.0,82,0.00,,,0.00,,2013-05-28 04:03:00,
2013-05-28 00:13:00,48.0,43.0,30.16,SSE,156,0.0,1.0,82,0.00,,,0.00,,2013-05-28 04:13:00,
2013-05-28 00:22:00,47.0,42.0,30.16,SSE,157,0.0,1.0,83,0.00,,,0.00,,2013-05-28 04:22:00,
2013-05-28 00:33:00,47.0,42.0,30.17,SSE,157,0.0,1.0,84,0.00,,,0.00,,2013-05-28 04:33:00,
2013-05-28 00:43:00,47.0,42.0,30.17,SSE,157,0.0,1.0,84,0.00,,,0.00,,2013-05-28 04:43:00,
2013-05-28 00:53:00,46.0,42.0,30.17,SSE,156,0.0,1.0,85,0.00,,,0.00,,2013-05-28 04:53:00,
2013-05-28 01:02:00,46.0,42.0,30.17,SSE,156,0.0,1.0,86,0.00,,,0.00,,2013-05-28 05:02:00,
2013-05-28 01:12:00,46.0,42.0,30.17,SSE,156,0.0,1.0,86,0.00,,,0.00,,2013-05-28 05:12:00,
2013-05-28 01:22:00,46.0,42.0,30.17,SSE,157,1.0,1.0,87,0.00,,,0.00,,2013-05-28 05:22:00,
2013-05-28 01:33:00,45.0,42.0,30.18,SSE,156,0.0,0.0,88,0.00,,,0.00,,2013-05-28 05:33:00,
2013-05-28 01:42:00,45.0,42.0,30.18,SSE,156,0.0,0.0,88,0.00,,,0.00,,2013-05-28 05:42:00,
2013-05-28 01:52:00,45.0,42.0,30.19,SSE,156,0.0,1.0,88,0.00,,,0.00,,2013-05-28 05:52:00,
2013-05-28 02:02:00,45.0,42.0,30.18,SSE,156,0.0,1.0,89,0.00,,,0.00,,2013-05-28 06:02:00,
2013-05-28 02:12:00,45.0,42.0,30.18,SSE,156,0.0,1.0,89,0.00,,,0.00,,2013-05-28 06:12:00,
2013-05-28 02:22:00,44.0,41.0,30.19,SSE,156,0.0,0.0,89,0.00,,,0.00,,2013-05-28 06:22:00,
2013-05-28 02:32:00,43.0,40.0,30.19,SSE,156,0.0,0.0,89,0.00,,,0.00,,2013-05-28 06:32:00,
2013-05-28 02:42:00,43.0,40.0,30.19,SSE,156,0.0,0.0,89,0.00,,,0.00,,2013-05-28 06:42:00,
2013-05-28 02:52:00,43.0,40.0,30.19,SSE,157,0.0,0.0,90,0.00,,,0.00,,2013-05-28 06:52:00,
2013-05-28 03:01:00,43.0,40.0,30.19,SSE,157,0.0,0.0,90,0.00,,,0.00,,2013-05-28 07:01:00,
2013-05-28 03:11:00,43.0,40.0,30.19,SSE,157,0.0,0.0,90,0.00,,,0.00,,2013-05-28 07:11:00,
2013-05-28 03:21:00,43.0,41.0,30.19,SSE,157,0.0,0.0,91,0.00,,,0.00,,2013-05-28 07:21:00,
2013-05-28 03:32:00,46.0,42.0,30.19,SSE,156,0.0,1.0,86,0.00,,,0.00,,2013-05-28 07:32:00,
2013-05-28 03:42:00,46.0,42.0,30.19,SSE,156,0.0,1.0,86,0.00,,,0.00,,2013-05-28 07:42:00,
2013-05-28 03:52:00,45.0,41.0,30.19,SSE,158,0.0,1.0,87,0.00,,,0.00,,2013-05-28 07:52:00,
2013-05-28 04:02:00,44.0,41.0,30.19,SSE,156,0.0,0.0,88,0.00,,,0.00,,2013-05-28 08:02:00,
2013-05-28 04:12:00,44.0,41.0,30.19,SSE,156,0.0,0.0,88,0.00,,,0.00,,2013-05-28 08:12:00,
2013-05-28 04:22:00,43.0,40.0,30.19,SSE,157,0.0,1.0,89,0.00,,,0.00,,2013-05-28 08:22:00,
2013-05-28 04:32:00,43.0,40.0,30.19,SSE,156,0.0,0.0,90,0.00,,,0.00,,2013-05-28 08:32:00,
2013-05-28 04:42:00,43.0,40.0,30.19,SSE,156,0.0,0.0,90,0.00,,,0.00,,2013-05-28 08:42:00,
2013-05-28 04:52:00,42.0,40.0,30.19,SSE,157,0.0,1.0,91,0.00,,,0.00,,2013-05-28 08:52:00,
2013-05-28 05:01:00,42.0,40.0,30.20,SSE,156,0.0,0.0,92,0.00,,,0.00,,2013-05-28 09:01:00,
2013-05-28 05:11:00,42.0,40.0,30.20,SSE,156,0.0,0.0,92,0.00,,,0.00,,2013-05-28 09:11:00,
2013-05-28 05:21:00,42.0,40.0,30.20,SSE,156,0.0,0.0,92,0.00,,,0.00,,2013-05-28 09:21:00,
2013-05-28 05:33:00,41.0,39.0,30.20,SSE,158,0.0,0.0,93,0.00,,,0.00,,2013-05-28 09:33:00,
2013-05-28 05:43:00,41.0,39.0,30.20,SSE,158,0.0,0.0,93,0.00,,,0.00,,2013-05-28 09:43:00,
2013-05-28 05:54:00,42.0,40.0,30.20,SSE,157,0.0,1.0,93,0.00,,,0.00,,2013-05-28 09:54:00,
2013-05-28 06:03:00,42.0,40.0,30.21,SSE,156,0.0,0.0,93,0.00,,,0.00,,2013-05-28 10:03:00,
2013-05-28 06:12:00,42.0,40.0,30.21,SSE,156,0.0,0.0,93,0.00,,,0.00,,2013-05-28 10:12:00,
2013-05-28 06:23:00,42.0,40.0,30.21,SSE,156,0.0,0.0,93,0.00,,,0.00,,2013-05-28 10:23:00,
2013-05-28 06:32:00,43.0,41.0,30.21,SSE,156,0.0,0.0,93,0.00,,,0.00,,2013-05-28 10:32:00,
2013-05-28 06:43:00,43.0,41.0,30.21,SSE,156,0.0,0.0,93,0.00,,,0.00,,2013-05-28 10:43:00,
2013-05-28 06:53:00,44.0,42.0,30.22,SSE,156,0.0,0.0,91,0.00,,,0.00,,2013-05-28 10:53:00,
2013-05-28 07:02:00,46.0,42.0,30.22,SSE,156,0.0,0.0,86,0.00,,,0.00,,2013-05-28 11:02:00,
2013-05-28 07:11:00,46.0,42.0,30.22,SSE,156,0.0,0.0,86,0.00,,,0.00,,2013-05-28 11:11:00,
2013-05-28 07:22:00,48.0,42.0,30.22,SSE,156,0.0,1.0,80,0.00,,,0.00,,2013-05-28 11:22:00,
2013-05-28 07:32:00,50.0,43.0,30.23,SSE,157,0.0,1.0,76,0.00,,,0.00,,2013-05-28 11:32:00,
2013-05-28 07:42:00,50.0,43.0,30.23,SSE,157,0.0,1.0,76,0.00,,,0.00,,2013-05-28 11:42:00,
2013-05-28 07:52:00,51.0,43.0,30.23,SSE,156,0.0,1.0,75,0.00,,,0.00,,2013-05-28 11:52:00,
2013-05-28 08:02:00,54.0,45.0,30.23,SSE,157,0.0,1.0,72,0.00,,,0.00,,2013-05-28 12:02:00,
2013-05-28 08:11:00,54.0,45.0,30.23,SSE,157,0.0,1.0,72,0.00,,,0.00,,2013-05-28 12:11:00,
2013-05-28 08:21:00,55.0,45.0,30.23,SSE,156,0.0,1.0,70,0.00,,,0.00,,2013-05-28 12:21:00,
2013-05-28 08:32:00,57.0,46.0,30.23,SSE,156,0.0,1.0,67,0.00,,,0.00,,2013-05-28 12:32:00,
2013-05-28 08:42:00,57.0,46.0,30.23,SSE,156,0.0,1.0,67,0.00,,,0.00,,2013-05-28 12:42:00,
2013-05-28 08:52:00,58.0,47.0,30.23,West,275,0.0,0.0,66,0.00,,,0.00,,2013-05-28 12:52:00,
2013-05-28 09:01:00,59.0,47.0,30.23,NW,321,0.0,0.0,64,0.00,,,0.00,,2013-05-28 13:01:00,
2013-05-28 09:11:00,59.0,47.0,30.23,NW,321,0.0,0.0,64,0.00,,,0.00,,2013-05-28 13:11:00,
2013-05-28 09:22:00,61.0,47.0,30.23,SSW,194,1.0,2.0,59,0.00,,,0.00,,2013-05-28 13:22:00,
2013-05-28 09:32:00,63.0,47.0,30.23,SW,217,1.0,4.0,56,0.00,,,0.00,,2013-05-28 13:32:00,
2013-05-28 09:42:00,63.0,47.0,30.23,SW,217,1.0,4.0,56,0.00,,,0.00,,2013-05-28 13:42:00,
2013-05-28 09:52:00,65.0,46.0,30.23,NW,321,0.0,3.0,51,0.00,,,0.00,,2013-05-28 13:52:00,
2013-05-28 10:02:00,66.0,47.0,30.23,SW,231,1.0,2.0,50,0.00,,,0.00,,2013-05-28 14:02:00,
2013-05-28 10:12:00,66.0,47.0,30.23,SW,231,1.0,2.0,50,0.00,,,0.00,,2013-05-28 14:12:00,
2013-05-28 10:21:00,68.0,48.0,30.23,NNW,339,1.0,3.0,48,0.00,,,0.00,,2013-05-28 14:21:00,
2013-05-28 10:32:00,68.0,48.0,30.23,WSW,248,1.0,5.0,48,0.00,,,0.00,,2013-05-28 14:32:00,
2013-05-28 10:42:00,68.0,48.0,30.23,WSW,248,1.0,5.0,48,0.00,,,0.00,,2013-05-28 14:42:00,
2013-05-28 10:52:00,69.0,48.0,30.23,SSW,199,1.0,3.0,47,0.00,,,0.00,,2013-05-28 14:52:00,
2013-05-28 11:01:00,69.0,48.0,30.23,SSW,199,1.0,3.0,47,0.00,,,0.00,,2013-05-28 15:01:00,
2013-05-28 11:11:00,69.0,48.0,30.23,SSW,199,1.0,3.0,47,0.00,,,0.00,,2013-05-28 15:11:00,
2013-05-28 11:21:00,70.0,39.0,30.24,South,170,3.0,7.0,32,0.00,,,0.00,,2013-05-28 15:21:00,
2013-05-28 11:33:00,69.0,39.0,30.24,SSW,200,1.0,4.0,33,0.00,,,0.00,,2013-05-28 15:33:00,
2013-05-28 11:43:00,69.0,39.0,30.24,SSW,200,1.0,4.0,33,0.00,,,0.00,,2013-05-28 15:43:00,
2013-05-28 11:53:00,70.0,38.0,30.24,SSW,209,3.0,7.0,31,0.00,,,0.00,,2013-05-28 15:53:00,
2013-05-28 12:03:00,70.0,39.0,30.24,SSE,150,1.0,5.0,32,0.00,,,0.00,,2013-05-28 16:03:00,
2013-05-28 12:13:00,70.0,39.0,30.24,SSE,150,1.0,5.0,32,0.00,,,0.00,,2013-05-28 16:13:00,
2013-05-28 12:23:00,70.0,38.0,30.24,South,186,2.0,5.0,31,0.00,,,0.00,,2013-05-28 16:23:00,
2013-05-28 12:33:00,70.0,40.0,30.24,SSW,211,2.0,6.0,33,0.00,,,0.00,,2013-05-28 16:33:00,
2013-05-28 12:42:00,70.0,40.0,30.24,SSW,211,2.0,6.0,33,0.00,,,0.00,,2013-05-28 16:42:00,
2013-05-28 12:53:00,70.0,39.0,30.24,SW,217,2.0,6.0,32,0.00,,,0.00,,2013-05-28 16:53:00,
2013-05-28 13:02:00,70.0,38.0,30.23,SW,217,2.0,5.0,31,0.00,,,0.00,,2013-05-28 17:02:00,
2013-05-28 13:12:00,70.0,38.0,30.23,SW,217,2.0,5.0,31,0.00,,,0.00,,2013-05-28 17:12:00,
2013-05-28 13:22:00,70.0,38.0,30.23,SW,217,2.0,5.0,31,0.00,,,0.00,,2013-05-28 17:22:00,
2013-05-28 13:32:00,71.0,40.0,30.22,SSE,155,1.0,4.0,33,0.00,,,0.00,,2013-05-28 17:32:00,
2013-05-28 13:42:00,71.0,40.0,30.22,SSE,165,1.0,4.0,33,0.00,,,0.00,,2013-05-28 17:42:00,
2013-05-28 13:52:00,71.0,40.0,30.22,SSE,165,1.0,4.0,33,0.00,,,0.00,,2013-05-28 17:52:00,
2013-05-28 14:01:00,72.0,41.0,30.22,SW,217,2.0,7.0,33,0.00,,,0.00,,2013-05-28 18:01:00,
2013-05-28 14:11:00,72.0,41.0,30.22,SW,217,2.0,7.0,33,0.00,,,0.00,,2013-05-28 18:11:00,
2013-05-28 14:22:00,71.0,40.0,30.21,South,188,2.0,5.0,32,0.00,,,0.00,,2013-05-28 18:22:00,
2013-05-28 14:32:00,72.0,42.0,30.20,ESE,123,1.0,2.0,34,0.00,,,0.00,,2013-05-28 18:32:00,
2013-05-28 14:42:00,72.0,43.0,30.20,SSW,203,0.0,4.0,35,0.00,,,0.00,,2013-05-28 18:42:00,
2013-05-28 14:52:00,72.0,43.0,30.20,SSW,203,0.0,4.0,35,0.00,,,0.00,,2013-05-28 18:52:00,
2013-05-28 15:01:00,72.0,44.0,30.19,NW,324,2.0,3.0,36,0.00,,,0.00,,2013-05-28 19:01:00,
2013-05-28 15:11:00,72.0,44.0,30.19,NW,324,2.0,3.0,36,0.00,,,0.00,,2013-05-28 19:11:00,
2013-05-28 15:21:00,70.0,43.0,30.20,North,5,1.0,3.0,38,0.00,,,0.00,,2013-05-28 19:21:00,
2013-05-28 15:32:00,70.0,43.0,30.20,WSW,250,1.0,5.0,37,0.00,,,0.00,,2013-05-28 19:32:00,
2013-05-28 15:42:00,70.0,43.0,30.20,WSW,250,1.0,5.0,37,0.00,,,0.00,,2013-05-28 19:42:00,
2013-05-28 15:52:00,72.0,44.0,30.19,WSW,257,1.0,2.0,37,0.00,,,0.00,,2013-05-28 19:52:00,
2013-05-28 16:02:00,71.0,43.0,30.19,WSW,248,2.0,3.0,37,0.00,,,0.00,,2013-05-28 20:02:00,
2013-05-28 16:11:00,71.0,43.0,30.19,WSW,248,2.0,3.0,37,0.00,,,0.00,,2013-05-28 20:11:00,
2013-05-28 16:22:00,70.0,44.0,30.19,NE,47,1.0,6.0,39,0.00,,,0.00,,2013-05-28 20:22:00,
2013-05-28 16:32:00,71.0,45.0,30.19,SW,231,0.0,3.0,39,0.00,,,0.00,,2013-05-28 20:32:00,
2013-05-28 16:42:00,71.0,45.0,30.19,SW,231,0.0,3.0,39,0.00,,,0.00,,2013-05-28 20:42:00,
2013-05-28 16:52:00,70.0,44.0,30.19,North,355,1.0,3.0,39,0.00,,,0.00,,2013-05-28 20:52:00,
2013-05-28 17:02:00,70.0,45.0,30.19,WSW,250,0.0,2.0,40,0.00,,,0.00,,2013-05-28 21:02:00,
2013-05-28 17:11:00,69.0,46.0,30.18,North,352,1.0,3.0,43,0.00,,,0.00,,2013-05-28 21:11:00,
2013-05-28 17:21:00,69.0,46.0,30.18,North,352,1.0,3.0,43,0.00,,,0.00,,2013-05-28 21:21:00,
2013-05-28 17:33:00,70.0,46.0,30.18,South,169,0.0,2.0,42,0.00,,,0.00,,2013-05-28 21:33:00,
2013-05-28 17:43:00,70.0,46.0,30.18,South,169,0.0,2.0,42,0.00,,,0.00,,2013-05-28 21:43:00,
2013-05-28 17:53:00,68.0,45.0,30.17,SSW,201,0.0,2.0,44,0.00,,,0.00,,2013-05-28 21:53:00,
2013-05-28 18:02:00,68.0,49.0,30.17,WNW,286,0.0,2.0,50,0.00,,,0.00,,2013-05-28 22:02:00,
2013-05-28 18:13:00,67.0,49.0,30.16,WNW,295,0.0,4.0,53,0.00,,,0.00,,2013-05-28 22:13:00,
2013-05-28 18:22:00,67.0,49.0,30.16,WNW,295,0.0,4.0,53,0.00,,,0.00,,2013-05-28 22:22:00,
2013-05-28 18:33:00,67.0,50.0,30.16,ESE,117,1.0,3.0,55,0.00,,,0.00,,2013-05-28 22:33:00,
2013-05-28 18:42:00,66.0,51.0,30.16,NNW,341,0.0,2.0,58,0.00,,,0.00,,2013-05-28 22:42:00,
2013-05-28 18:52:00,66.0,51.0,30.16,NNW,341,0.0,2.0,58,0.00,,,0.00,,2013-05-28 22:52:00,
2013-05-28 19:02:00,65.0,51.0,30.16,SW,231,0.0,2.0,61,0.00,,,0.00,,2013-05-28 23:02:00,
2013-05-28 19:11:00,65.0,51.0,30.16,SW,231,0.0,2.0,61,0.00,,,0.00,,2013-05-28 23:11:00,
2013-05-28 19:22:00,64.0,52.0,30.16,SW,236,0.0,1.0,64,0.00,,,0.00,,2013-05-28 23:22:00,
2013-05-28 19:32:00,63.0,53.0,30.16,WSW,238,0.0,0.0,69,0.00,,,0.00,,2013-05-28 23:32:00,
2013-05-28 19:42:00,63.0,53.0,30.16,WSW,238,0.0,0.0,69,0.00,,,0.00,,2013-05-28 23:42:00,
2013-05-28 19:52:00,62.0,52.0,30.15,WSW,238,0.0,1.0,71,0.00,,,0.00,,2013-05-28 23:52:00,
2013-05-28 20:02:00,61.0,52.0,30.15,WSW,238,0.0,1.0,73,0.00,,,0.00,,2013-05-29 00:02:00,
2013-05-28 20:11:00,61.0,52.0,30.15,WSW,238,0.0,1.0,73,0.00,,,0.00,,2013-05-29 00:11:00,
2013-05-28 20:22:00,60.0,52.0,30.15,WSW,238,0.0,0.0,75,0.00,,,0.00,,2013-05-29 00:22:00,
2013-05-28 20:32:00,58.0,51.0,30.15,WSW,238,0.0,0.0,78,0.00,,,0.00,,2013-05-29 00:32:00,
2013-05-28 20:42:00,58.0,51.0,30.15,WSW,238,0.0,0.0,78,0.00,,,0.00,,2013-05-29 00:42:00,
2013-05-28 20:52:00,57.0,51.0,30.15,WSW,238,0.0,0.0,81,0.00,,,0.00,,2013-05-29 00:52:00,
2013-05-28 21:01:00,56.0,51.0,30.16,WSW,238,0.0,0.0,83,0.00,,,0.00,,2013-05-29 01:01:00,
2013-05-28 21:11:00,56.0,51.0,30.16,WSW,238,0.0,0.0,83,0.00,,,0.00,,2013-05-29 01:11:00,
2013-05-28 21:22:00,55.0,51.0,30.16,WSW,237,0.0,0.0,85,0.00,,,0.00,,2013-05-29 01:22:00,
2013-05-28 21:32:00,55.0,51.0,30.16,WSW,237,0.0,0.0,87,0.00,,,0.00,,2013-05-29 01:32:00,
2013-05-28 21:42:00,55.0,51.0,30.16,WSW,237,0.0,0.0,87,0.00,,,0.00,,2013-05-29 01:42:00,
2013-05-28 21:52:00,54.0,51.0,30.17,WSW,238,0.0,0.0,88,0.00,,,0.00,,2013-05-29 01:52:00,
2013-05-28 22:02:00,53.0,50.0,30.17,WSW,237,0.0,0.0,89,0.00,,,0.00,,2013-05-29 02:02:00,
2013-05-28 22:12:00,53.0,50.0,30.17,WSW,237,0.0,0.0,89,0.00,,,0.00,,2013-05-29 02:12:00,
2013-05-28 22:21:00,53.0,50.0,30.17,WSW,237,0.0,0.0,90,0.00,,,0.00,,2013-05-29 02:21:00,
2013-05-28 22:32:00,53.0,50.0,30.17,WSW,238,0.0,1.0,91,0.00,,,0.00,,2013-05-29 02:32:00,
2013-05-28 22:42:00,52.0,50.0,30.17,SW,236,0.0,1.0,92,0.00,,,0.00,,2013-05-29 02:42:00,
2013-05-28 22:52:00,52.0,50.0,30.17,SW,236,0.0,1.0,92,0.00,,,0.00,,2013-05-29 02:52:00,
2013-05-28 23:02:00,52.0,50.0,30.17,SW,236,0.0,1.0,92,0.00,,,0.00,,2013-05-29 03:02:00,
2013-05-28 23:12:00,52.0,50.0,30.17,SW,236,0.0,1.0,92,0.00,,,0.00,,2013-05-29 03:12:00,
2013-05-28 23:22:00,53.0,51.0,30.18,SSW,197,1.0,2.0,92,0.00,,,0.00,,2013-05-29 03:22:00,
2013-05-28 23:33:00,53.0,50.0,30.17,SSW,210,1.0,2.0,91,0.00,,,0.00,,2013-05-29 03:33:00,
2013-05-28 23:43:00,53.0,50.0,30.17,SSW,210,1.0,2.0,91,0.00,,,0.00,,2013-05-29 03:43:00,
2013-05-28 23:53:00,54.0,51.0,30.17,SSW,207,0.0,2.0,90,0.00,,,0.00,,2013-05-29 03:53:00,